Skip Navigation

Christman Field Latest Observations

Switch to english unitsOther observation timesWeekly graphs

Date Time
MST
Temp
°C
RH
%
DewPt
°C
Wind
m/s
Dir
°
Gust
m/s
Dir
°
Press
hPa
Solar
W/m^2
Prec
mm
2017-09-21 05:10 4.9 66.0 -0.9 0.1 0.8 833.11 0.0 0.00
2017-09-21 05:05 5.2 64.2 -1.0 0.5 1.5 833.06 0.0 0.00
2017-09-21 05:00 5.3 66.5 -0.4 0.7 2.8 833.11 0.0 0.00
2017-09-21 04:55 5.3 62.6 -1.3 0.2 0.8 833.00 0.0 0.00
2017-09-21 04:50 4.8 68.8 -0.4 0.8 1.9 833.15 0.0 0.00
2017-09-21 04:45 6.0 61.9 -0.7 1.7 2.4 833.10 0.0 0.00
2017-09-21 04:40 5.5 61.2 -1.4 0.1 1.1 833.27 0.0 0.00
2017-09-21 04:35 5.4 65.0 -0.6 0.5 1.5 833.51 0.0 0.00
2017-09-21 04:30 5.6 61.2 -1.3 1.0 1.6 833.82 0.0 0.00
2017-09-21 04:25 5.5 64.1 -0.8 1.4 1.8 834.19 0.0 0.00
2017-09-21 04:20 6.0 61.8 -0.8 1.9 2.4 834.29 0.0 0.00
2017-09-21 04:15 5.4 61.1 -1.5 1.2 2.0 834.20 0.0 0.00
2017-09-21 04:10 5.0 64.6 -1.1 2.0 2.6 834.25 0.0 0.00
2017-09-21 04:05 5.9 60.9 -1.0 2.1 2.7 834.33 0.0 0.00
2017-09-21 04:00 6.1 58.6 -1.4 2.8 3.5 834.26 0.0 0.00
2017-09-21 03:55 5.8 61.2 -1.1 1.3 1.8 834.36 0.0 0.00
2017-09-21 03:50 6.0 61.3 -0.9 1.8 2.4 834.42 0.0 0.00
2017-09-21 03:45 6.0 60.1 -1.1 2.0 3.0 834.35 0.0 0.00
2017-09-21 03:40 5.8 61.7 -1.0 1.7 3.1 834.52 0.0 0.00
2017-09-21 03:35 6.2 59.9 -1.0 2.6 3.4 834.50 0.0 0.00
2017-09-21 03:30 6.7 59.3 -0.7 3.6 4.0 834.55 0.0 0.00
2017-09-21 03:25 6.6 58.8 -0.9 3.3 3.6 834.48 0.0 0.00
2017-09-21 03:20 6.3 60.2 -0.8 3.4 4.3 834.55 0.0 0.00
2017-09-21 03:15 6.5 60.8 -0.6 3.7 4.5 834.50 0.0 0.00
2017-09-21 03:10 6.5 58.9 -0.9 3.7 4.2 834.51 0.0 0.00
2017-09-21 03:05 6.5 59.5 -0.8 2.7 3.7 834.56 0.0 0.00
2017-09-21 03:00 7.0 57.2 -0.9 2.9 3.6 834.41 0.0 0.00
2017-09-21 02:55 6.9 58.9 -0.6 4.1 4.8 834.58 0.0 0.00
2017-09-21 02:50 7.0 56.5 -1.0 2.9 3.4 834.58 0.0 0.00
2017-09-21 02:45 6.3 59.5 -1.0 4.2 4.8 834.81 0.0 0.00